sensor_id;sensor_type;location;lat;lon;timestamp;P1;durP1;ratioP1;P2;durP2;ratioP2
14348;SDS011;7258;50.376;8.742;2024-03-29T00:01:47;2.40;;;1.40;;
14348;SDS011;7258;50.376;8.742;2024-03-29T00:03:50;3.70;;;1.63;;
14348;SDS011;7258;50.376;8.742;2024-03-29T00:05:52;3.33;;;1.40;;
14348;SDS011;7258;50.376;8.742;2024-03-29T00:07:56;4.13;;;1.50;;
14348;SDS011;7258;50.376;8.742;2024-03-29T00:09:58;2.70;;;1.53;;
14348;SDS011;7258;50.376;8.742;2024-03-29T00:11:59;2.33;;;1.53;;
14348;SDS011;7258;50.376;8.742;2024-03-29T00:14:04;3.20;;;1.60;;
14348;SDS011;7258;50.376;8.742;2024-03-29T00:16:05;4.30;;;1.57;;
14348;SDS011;7258;50.376;8.742;2024-03-29T00:18:11;3.67;;;1.87;;
14348;SDS011;7258;50.376;8.742;2024-03-29T00:20:15;3.23;;;1.57;;
14348;SDS011;7258;50.376;8.742;2024-03-29T00:22:18;2.83;;;1.40;;
14348;SDS011;7258;50.376;8.742;2024-03-29T00:24:20;1.83;;;1.43;;
14348;SDS011;7258;50.376;8.742;2024-03-29T00:26:21;2.77;;;1.80;;
14348;SDS011;7258;50.376;8.742;2024-03-29T00:28:23;4.90;;;1.80;;
14348;SDS011;7258;50.376;8.742;2024-03-29T00:30:25;3.40;;;1.63;;
14348;SDS011;7258;50.376;8.742;2024-03-29T00:32:26;2.90;;;1.67;;
14348;SDS011;7258;50.376;8.742;2024-03-29T00:34:28;4.97;;;1.70;;
14348;SDS011;7258;50.376;8.742;2024-03-29T00:36:31;2.30;;;1.43;;
14348;SDS011;7258;50.376;8.742;2024-03-29T00:38:33;2.03;;;1.50;;
14348;SDS011;7258;50.376;8.742;2024-03-29T00:40:35;2.77;;;1.60;;
14348;SDS011;7258;50.376;8.742;2024-03-29T00:42:37;3.13;;;1.60;;
14348;SDS011;7258;50.376;8.742;2024-03-29T00:44:38;3.10;;;1.50;;
14348;SDS011;7258;50.376;8.742;2024-03-29T00:46:40;5.70;;;2.10;;
14348;SDS011;7258;50.376;8.742;2024-03-29T00:48:41;3.37;;;1.97;;
14348;SDS011;7258;50.376;8.742;2024-03-29T00:50:43;2.50;;;1.50;;
14348;SDS011;7258;50.376;8.742;2024-03-29T00:52:46;3.40;;;1.60;;
14348;SDS011;7258;50.376;8.742;2024-03-29T00:54:48;2.23;;;1.70;;
14348;SDS011;7258;50.376;8.742;2024-03-29T00:56:49;3.13;;;1.77;;
14348;SDS011;7258;50.376;8.742;2024-03-29T00:58:51;2.57;;;1.93;;
14348;SDS011;7258;50.376;8.742;2024-03-29T01:00:53;4.80;;;1.97;;
14348;SDS011;7258;50.376;8.742;2024-03-29T01:02:54;6.90;;;2.20;;
14348;SDS011;7258;50.376;8.742;2024-03-29T01:04:56;4.27;;;2.20;;
14348;SDS011;7258;50.376;8.742;2024-03-29T01:06:57;3.53;;;2.23;;
14348;SDS011;7258;50.376;8.742;2024-03-29T01:09:00;3.80;;;2.27;;
14348;SDS011;7258;50.376;8.742;2024-03-29T01:11:02;5.03;;;2.00;;
14348;SDS011;7258;50.376;8.742;2024-03-29T01:13:04;5.50;;;2.73;;
14348;SDS011;7258;50.376;8.742;2024-03-29T01:15:05;6.57;;;2.27;;
14348;SDS011;7258;50.376;8.742;2024-03-29T01:17:07;5.83;;;2.47;;
14348;SDS011;7258;50.376;8.742;2024-03-29T01:19:08;6.37;;;2.53;;
14348;SDS011;7258;50.376;8.742;2024-03-29T01:21:09;3.33;;;2.27;;
14348;SDS011;7258;50.376;8.742;2024-03-29T01:23:11;4.93;;;2.20;;
14348;SDS011;7258;50.376;8.742;2024-03-29T01:25:13;2.83;;;2.00;;
14348;SDS011;7258;50.376;8.742;2024-03-29T01:27:15;2.63;;;1.87;;
14348;SDS011;7258;50.376;8.742;2024-03-29T01:29:16;4.50;;;2.00;;
14348;SDS011;7258;50.376;8.742;2024-03-29T01:31:21;5.23;;;2.30;;
14348;SDS011;7258;50.376;8.742;2024-03-29T01:33:23;5.47;;;2.07;;
14348;SDS011;7258;50.376;8.742;2024-03-29T01:35:24;5.30;;;1.90;;
14348;SDS011;7258;50.376;8.742;2024-03-29T01:37:25;3.10;;;2.07;;
14348;SDS011;7258;50.376;8.742;2024-03-29T01:39:27;4.87;;;2.10;;
14348;SDS011;7258;50.376;8.742;2024-03-29T01:41:30;2.73;;;1.90;;
14348;SDS011;7258;50.376;8.742;2024-03-29T01:43:31;3.77;;;1.90;;
14348;SDS011;7258;50.376;8.742;2024-03-29T01:45:33;2.40;;;1.90;;
14348;SDS011;7258;50.376;8.742;2024-03-29T01:47:36;4.93;;;2.07;;
14348;SDS011;7258;50.376;8.742;2024-03-29T01:49:38;3.30;;;2.07;;
14348;SDS011;7258;50.376;8.742;2024-03-29T01:51:40;3.23;;;1.70;;
14348;SDS011;7258;50.376;8.742;2024-03-29T01:53:43;4.00;;;1.97;;
14348;SDS011;7258;50.376;8.742;2024-03-29T01:55:45;5.37;;;2.03;;
14348;SDS011;7258;50.376;8.742;2024-03-29T01:57:52;2.77;;;1.77;;
14348;SDS011;7258;50.376;8.742;2024-03-29T01:59:54;2.13;;;1.90;;
14348;SDS011;7258;50.376;8.742;2024-03-29T02:01:56;4.43;;;1.80;;
14348;SDS011;7258;50.376;8.742;2024-03-29T02:04:00;5.23;;;1.90;;
14348;SDS011;7258;50.376;8.742;2024-03-29T02:06:02;4.37;;;1.60;;
14348;SDS011;7258;50.376;8.742;2024-03-29T02:08:05;3.37;;;1.80;;
14348;SDS011;7258;50.376;8.742;2024-03-29T02:10:09;2.73;;;1.63;;
14348;SDS011;7258;50.376;8.742;2024-03-29T02:12:13;3.10;;;1.60;;
14348;SDS011;7258;50.376;8.742;2024-03-29T02:14:17;2.30;;;1.80;;
14348;SDS011;7258;50.376;8.742;2024-03-29T02:16:18;3.67;;;1.70;;
14348;SDS011;7258;50.376;8.742;2024-03-29T02:18:21;3.07;;;1.57;;
14348;SDS011;7258;50.376;8.742;2024-03-29T02:20:23;3.70;;;1.77;;
14348;SDS011;7258;50.376;8.742;2024-03-29T02:22:25;4.30;;;1.60;;
14348;SDS011;7258;50.376;8.742;2024-03-29T02:24:32;2.93;;;1.80;;
14348;SDS011;7258;50.376;8.742;2024-03-29T02:26:34;3.97;;;1.70;;
14348;SDS011;7258;50.376;8.742;2024-03-29T02:28:47;2.80;;;1.70;;
14348;SDS011;7258;50.376;8.742;2024-03-29T02:30:49;2.83;;;1.97;;
14348;SDS011;7258;50.376;8.742;2024-03-29T02:32:52;2.90;;;1.70;;
14348;SDS011;7258;50.376;8.742;2024-03-29T02:34:53;2.20;;;1.73;;
14348;SDS011;7258;50.376;8.742;2024-03-29T02:36:56;2.60;;;1.80;;
14348;SDS011;7258;50.376;8.742;2024-03-29T02:38:58;3.17;;;1.83;;
14348;SDS011;7258;50.376;8.742;2024-03-29T02:40:59;3.10;;;1.63;;
14348;SDS011;7258;50.376;8.742;2024-03-29T02:43:05;2.83;;;1.63;;
14348;SDS011;7258;50.376;8.742;2024-03-29T02:45:09;3.63;;;1.70;;
14348;SDS011;7258;50.376;8.742;2024-03-29T02:47:13;4.23;;;1.70;;
14348;SDS011;7258;50.376;8.742;2024-03-29T02:49:15;3.07;;;1.77;;
14348;SDS011;7258;50.376;8.742;2024-03-29T02:51:17;3.77;;;1.77;;
14348;SDS011;7258;50.376;8.742;2024-03-29T02:53:19;4.53;;;1.53;;
14348;SDS011;7258;50.376;8.742;2024-03-29T02:55:21;2.43;;;1.30;;
14348;SDS011;7258;50.376;8.742;2024-03-29T02:57:23;1.67;;;1.40;;
14348;SDS011;7258;50.376;8.742;2024-03-29T02:59:25;2.67;;;1.40;;
14348;SDS011;7258;50.376;8.742;2024-03-29T03:01:28;2.27;;;1.47;;
14348;SDS011;7258;50.376;8.742;2024-03-29T03:03:32;3.10;;;1.60;;
14348;SDS011;7258;50.376;8.742;2024-03-29T03:05:33;4.00;;;1.60;;
14348;SDS011;7258;50.376;8.742;2024-03-29T03:07:38;1.83;;;1.53;;
14348;SDS011;7258;50.376;8.742;2024-03-29T03:09:58;2.77;;;1.63;;
14348;SDS011;7258;50.376;8.742;2024-03-29T03:12:18;3.40;;;1.43;;
14348;SDS011;7258;50.376;8.742;2024-03-29T03:14:21;2.13;;;1.53;;
14348;SDS011;7258;50.376;8.742;2024-03-29T03:16:23;1.70;;;1.47;;
14348;SDS011;7258;50.376;8.742;2024-03-29T03:18:27;4.40;;;1.87;;
14348;SDS011;7258;50.376;8.742;2024-03-29T03:20:30;2.50;;;1.47;;
14348;SDS011;7258;50.376;8.742;2024-03-29T03:22:33;5.20;;;2.13;;
14348;SDS011;7258;50.376;8.742;2024-03-29T03:24:35;1.83;;;1.37;;
14348;SDS011;7258;50.376;8.742;2024-03-29T03:26:37;2.77;;;1.57;;
14348;SDS011;7258;50.376;8.742;2024-03-29T03:28:39;3.37;;;1.80;;
14348;SDS011;7258;50.376;8.742;2024-03-29T03:30:41;4.73;;;1.67;;
14348;SDS011;7258;50.376;8.742;2024-03-29T03:32:45;3.57;;;1.80;;
14348;SDS011;7258;50.376;8.742;2024-03-29T03:34:48;1.73;;;1.50;;
14348;SDS011;7258;50.376;8.742;2024-03-29T03:36:49;1.83;;;1.33;;
14348;SDS011;7258;50.376;8.742;2024-03-29T03:38:53;2.77;;;1.47;;
14348;SDS011;7258;50.376;8.742;2024-03-29T03:40:55;3.20;;;1.70;;
14348;SDS011;7258;50.376;8.742;2024-03-29T03:42:56;2.87;;;1.70;;
14348;SDS011;7258;50.376;8.742;2024-03-29T03:44:59;3.20;;;1.57;;
14348;SDS011;7258;50.376;8.742;2024-03-29T03:47:00;2.17;;;1.33;;
14348;SDS011;7258;50.376;8.742;2024-03-29T03:49:02;4.20;;;1.83;;
14348;SDS011;7258;50.376;8.742;2024-03-29T03:51:05;5.13;;;1.60;;
14348;SDS011;7258;50.376;8.742;2024-03-29T03:53:07;3.27;;;1.47;;
14348;SDS011;7258;50.376;8.742;2024-03-29T03:55:08;1.80;;;1.67;;
14348;SDS011;7258;50.376;8.742;2024-03-29T03:57:10;3.57;;;1.60;;
14348;SDS011;7258;50.376;8.742;2024-03-29T03:59:14;3.93;;;1.80;;
14348;SDS011;7258;50.376;8.742;2024-03-29T04:01:16;2.50;;;1.60;;
14348;SDS011;7258;50.376;8.742;2024-03-29T04:03:17;1.40;;;1.27;;
14348;SDS011;7258;50.376;8.742;2024-03-29T04:05:19;4.03;;;2.10;;
14348;SDS011;7258;50.376;8.742;2024-03-29T04:07:22;2.60;;;1.53;;
14348;SDS011;7258;50.376;8.742;2024-03-29T04:09:24;3.57;;;1.80;;
14348;SDS011;7258;50.376;8.742;2024-03-29T04:11:25;3.57;;;1.67;;
14348;SDS011;7258;50.376;8.742;2024-03-29T04:13:29;2.93;;;2.20;;
14348;SDS011;7258;50.376;8.742;2024-03-29T04:15:30;2.83;;;1.73;;
14348;SDS011;7258;50.376;8.742;2024-03-29T04:17:33;3.30;;;1.60;;
14348;SDS011;7258;50.376;8.742;2024-03-29T04:19:36;3.30;;;1.50;;
14348;SDS011;7258;50.376;8.742;2024-03-29T04:21:38;2.50;;;1.70;;
14348;SDS011;7258;50.376;8.742;2024-03-29T04:23:40;1.97;;;1.70;;
14348;SDS011;7258;50.376;8.742;2024-03-29T04:25:50;2.83;;;1.73;;
14348;SDS011;7258;50.376;8.742;2024-03-29T04:27:52;2.93;;;1.80;;
14348;SDS011;7258;50.376;8.742;2024-03-29T04:29:54;3.10;;;1.50;;
14348;SDS011;7258;50.376;8.742;2024-03-29T04:31:55;4.97;;;1.70;;
14348;SDS011;7258;50.376;8.742;2024-03-29T04:33:57;2.40;;;1.57;;
14348;SDS011;7258;50.376;8.742;2024-03-29T04:35:59;4.47;;;1.77;;
14348;SDS011;7258;50.376;8.742;2024-03-29T04:38:03;2.20;;;1.77;;
14348;SDS011;7258;50.376;8.742;2024-03-29T04:40:07;3.97;;;1.70;;
14348;SDS011;7258;50.376;8.742;2024-03-29T04:42:10;3.20;;;1.60;;
14348;SDS011;7258;50.376;8.742;2024-03-29T04:44:13;1.77;;;1.40;;
14348;SDS011;7258;50.376;8.742;2024-03-29T04:46:23;2.70;;;1.80;;
14348;SDS011;7258;50.376;8.742;2024-03-29T04:48:25;2.50;;;1.50;;
14348;SDS011;7258;50.376;8.742;2024-03-29T04:50:26;3.20;;;1.40;;
14348;SDS011;7258;50.376;8.742;2024-03-29T04:52:28;2.30;;;1.50;;
14348;SDS011;7258;50.376;8.742;2024-03-29T04:54:30;3.67;;;1.70;;
14348;SDS011;7258;50.376;8.742;2024-03-29T04:56:34;4.63;;;1.80;;
14348;SDS011;7258;50.376;8.742;2024-03-29T04:58:36;4.60;;;1.70;;
14348;SDS011;7258;50.376;8.742;2024-03-29T05:00:38;2.10;;;1.70;;
14348;SDS011;7258;50.376;8.742;2024-03-29T05:02:43;2.57;;;1.70;;
14348;SDS011;7258;50.376;8.742;2024-03-29T05:04:45;2.30;;;1.47;;
14348;SDS011;7258;50.376;8.742;2024-03-29T05:06:47;3.07;;;2.00;;
14348;SDS011;7258;50.376;8.742;2024-03-29T05:08:48;4.77;;;2.00;;
14348;SDS011;7258;50.376;8.742;2024-03-29T05:10:51;2.20;;;1.70;;
14348;SDS011;7258;50.376;8.742;2024-03-29T05:12:54;4.47;;;1.90;;
14348;SDS011;7258;50.376;8.742;2024-03-29T05:14:57;2.67;;;1.70;;
14348;SDS011;7258;50.376;8.742;2024-03-29T05:16:59;2.90;;;2.00;;
14348;SDS011;7258;50.376;8.742;2024-03-29T05:19:01;2.30;;;1.80;;
14348;SDS011;7258;50.376;8.742;2024-03-29T05:21:03;3.60;;;1.90;;
14348;SDS011;7258;50.376;8.742;2024-03-29T05:23:05;3.83;;;1.70;;
14348;SDS011;7258;50.376;8.742;2024-03-29T05:25:07;3.03;;;1.53;;
14348;SDS011;7258;50.376;8.742;2024-03-29T05:27:09;2.90;;;2.00;;
14348;SDS011;7258;50.376;8.742;2024-03-29T05:29:13;4.73;;;2.10;;
14348;SDS011;7258;50.376;8.742;2024-03-29T05:31:15;2.57;;;1.57;;
14348;SDS011;7258;50.376;8.742;2024-03-29T05:33:16;4.50;;;1.80;;
14348;SDS011;7258;50.376;8.742;2024-03-29T05:35:19;4.47;;;1.90;;
14348;SDS011;7258;50.376;8.742;2024-03-29T05:37:21;4.70;;;2.07;;
14348;SDS011;7258;50.376;8.742;2024-03-29T05:39:25;4.57;;;2.00;;
14348;SDS011;7258;50.376;8.742;2024-03-29T05:41:26;5.40;;;1.83;;
14348;SDS011;7258;50.376;8.742;2024-03-29T05:43:28;2.40;;;1.53;;
14348;SDS011;7258;50.376;8.742;2024-03-29T05:45:31;1.97;;;1.60;;
14348;SDS011;7258;50.376;8.742;2024-03-29T05:47:33;4.53;;;1.80;;
14348;SDS011;7258;50.376;8.742;2024-03-29T05:49:35;5.27;;;2.03;;
14348;SDS011;7258;50.376;8.742;2024-03-29T05:51:37;3.77;;;1.60;;
14348;SDS011;7258;50.376;8.742;2024-03-29T05:53:39;2.73;;;1.67;;
14348;SDS011;7258;50.376;8.742;2024-03-29T05:55:42;3.67;;;1.57;;
14348;SDS011;7258;50.376;8.742;2024-03-29T05:57:43;2.27;;;1.70;;
14348;SDS011;7258;50.376;8.742;2024-03-29T05:59:45;2.47;;;1.47;;
14348;SDS011;7258;50.376;8.742;2024-03-29T06:01:48;3.73;;;1.80;;
14348;SDS011;7258;50.376;8.742;2024-03-29T06:03:49;3.40;;;1.83;;
14348;SDS011;7258;50.376;8.742;2024-03-29T06:05:53;2.63;;;1.70;;
14348;SDS011;7258;50.376;8.742;2024-03-29T06:07:55;3.60;;;1.80;;
14348;SDS011;7258;50.376;8.742;2024-03-29T06:09:58;4.47;;;2.20;;
14348;SDS011;7258;50.376;8.742;2024-03-29T06:12:00;4.37;;;1.70;;
14348;SDS011;7258;50.376;8.742;2024-03-29T06:14:02;7.07;;;2.40;;
14348;SDS011;7258;50.376;8.742;2024-03-29T06:16:23;3.20;;;1.70;;
14348;SDS011;7258;50.376;8.742;2024-03-29T06:18:45;4.03;;;2.00;;
14348;SDS011;7258;50.376;8.742;2024-03-29T06:20:47;4.57;;;2.13;;
14348;SDS011;7258;50.376;8.742;2024-03-29T06:22:49;4.70;;;1.67;;
14348;SDS011;7258;50.376;8.742;2024-03-29T06:24:51;4.60;;;2.03;;
14348;SDS011;7258;50.376;8.742;2024-03-29T06:26:53;3.73;;;2.30;;
14348;SDS011;7258;50.376;8.742;2024-03-29T06:28:55;5.37;;;2.07;;
14348;SDS011;7258;50.376;8.742;2024-03-29T06:30:57;3.33;;;2.00;;
14348;SDS011;7258;50.376;8.742;2024-03-29T06:33:00;6.43;;;2.20;;
14348;SDS011;7258;50.376;8.742;2024-03-29T06:35:06;3.93;;;2.47;;
14348;SDS011;7258;50.376;8.742;2024-03-29T06:37:11;3.73;;;2.13;;
14348;SDS011;7258;50.376;8.742;2024-03-29T06:39:14;5.33;;;2.60;;
14348;SDS011;7258;50.376;8.742;2024-03-29T06:41:17;3.37;;;2.03;;
14348;SDS011;7258;50.376;8.742;2024-03-29T06:43:18;3.10;;;1.93;;
14348;SDS011;7258;50.376;8.742;2024-03-29T06:45:21;6.00;;;2.47;;
14348;SDS011;7258;50.376;8.742;2024-03-29T06:47:23;4.53;;;2.60;;
14348;SDS011;7258;50.376;8.742;2024-03-29T06:49:25;2.50;;;2.23;;
14348;SDS011;7258;50.376;8.742;2024-03-29T06:51:29;3.73;;;2.27;;
14348;SDS011;7258;50.376;8.742;2024-03-29T06:53:34;4.90;;;2.30;;
14348;SDS011;7258;50.376;8.742;2024-03-29T06:55:38;4.50;;;2.33;;
14348;SDS011;7258;50.376;8.742;2024-03-29T06:57:39;2.87;;;2.10;;
14348;SDS011;7258;50.376;8.742;2024-03-29T06:59:45;6.17;;;2.27;;
14348;SDS011;7258;50.376;8.742;2024-03-29T07:01:47;4.97;;;2.53;;
14348;SDS011;7258;50.376;8.742;2024-03-29T07:03:54;5.03;;;2.40;;
14348;SDS011;7258;50.376;8.742;2024-03-29T07:05:56;6.87;;;2.47;;
14348;SDS011;7258;50.376;8.742;2024-03-29T07:07:59;5.97;;;2.60;;
14348;SDS011;7258;50.376;8.742;2024-03-29T07:10:04;3.43;;;2.70;;
14348;SDS011;7258;50.376;8.742;2024-03-29T07:12:07;4.87;;;2.47;;
14348;SDS011;7258;50.376;8.742;2024-03-29T07:14:09;3.50;;;2.37;;
14348;SDS011;7258;50.376;8.742;2024-03-29T07:16:12;4.30;;;2.37;;
14348;SDS011;7258;50.376;8.742;2024-03-29T07:18:17;4.40;;;2.23;;
14348;SDS011;7258;50.376;8.742;2024-03-29T07:20:18;3.00;;;2.27;;
14348;SDS011;7258;50.376;8.742;2024-03-29T07:22:23;3.00;;;2.30;;
14348;SDS011;7258;50.376;8.742;2024-03-29T07:24:26;4.43;;;2.40;;
14348;SDS011;7258;50.376;8.742;2024-03-29T07:26:29;5.10;;;2.47;;
14348;SDS011;7258;50.376;8.742;2024-03-29T07:28:34;4.27;;;2.50;;
14348;SDS011;7258;50.376;8.742;2024-03-29T07:30:48;3.93;;;2.33;;
14348;SDS011;7258;50.376;8.742;2024-03-29T07:32:53;3.03;;;2.73;;
14348;SDS011;7258;50.376;8.742;2024-03-29T07:35:10;4.80;;;2.50;;
14348;SDS011;7258;50.376;8.742;2024-03-29T07:37:17;4.57;;;2.40;;
14348;SDS011;7258;50.376;8.742;2024-03-29T07:39:22;6.33;;;2.60;;
14348;SDS011;7258;50.376;8.742;2024-03-29T07:41:25;3.63;;;2.23;;
14348;SDS011;7258;50.376;8.742;2024-03-29T07:43:39;4.53;;;2.70;;
14348;SDS011;7258;50.376;8.742;2024-03-29T07:45:45;6.90;;;2.90;;
14348;SDS011;7258;50.376;8.742;2024-03-29T07:47:54;4.17;;;2.47;;
14348;SDS011;7258;50.376;8.742;2024-03-29T07:50:54;3.93;;;2.57;;
14348;SDS011;7258;50.376;8.742;2024-03-29T07:52:57;3.20;;;2.50;;
14348;SDS011;7258;50.376;8.742;2024-03-29T07:54:58;3.80;;;2.73;;
14348;SDS011;7258;50.376;8.742;2024-03-29T07:57:02;3.13;;;2.73;;
14348;SDS011;7258;50.376;8.742;2024-03-29T07:59:09;3.80;;;2.67;;
14348;SDS011;7258;50.376;8.742;2024-03-29T08:01:10;3.57;;;2.87;;
14348;SDS011;7258;50.376;8.742;2024-03-29T08:03:20;5.83;;;2.63;;
14348;SDS011;7258;50.376;8.742;2024-03-29T08:05:22;2.90;;;2.50;;
14348;SDS011;7258;50.376;8.742;2024-03-29T08:07:25;3.07;;;2.73;;
14348;SDS011;7258;50.376;8.742;2024-03-29T08:09:27;7.10;;;2.83;;
14348;SDS011;7258;50.376;8.742;2024-03-29T08:11:29;4.60;;;3.10;;
14348;SDS011;7258;50.376;8.742;2024-03-29T08:13:33;4.30;;;2.70;;
14348;SDS011;7258;50.376;8.742;2024-03-29T08:15:36;5.23;;;2.93;;
14348;SDS011;7258;50.376;8.742;2024-03-29T08:17:38;4.53;;;2.83;;
14348;SDS011;7258;50.376;8.742;2024-03-29T08:19:40;4.47;;;2.60;;
14348;SDS011;7258;50.376;8.742;2024-03-29T08:21:43;4.30;;;2.43;;
14348;SDS011;7258;50.376;8.742;2024-03-29T08:23:44;4.43;;;2.50;;
14348;SDS011;7258;50.376;8.742;2024-03-29T08:25:48;4.10;;;2.77;;
14348;SDS011;7258;50.376;8.742;2024-03-29T08:27:52;3.87;;;2.60;;
14348;SDS011;7258;50.376;8.742;2024-03-29T08:30:02;4.00;;;2.73;;
14348;SDS011;7258;50.376;8.742;2024-03-29T08:32:05;4.37;;;2.90;;
14348;SDS011;7258;50.376;8.742;2024-03-29T08:34:10;3.87;;;3.00;;
14348;SDS011;7258;50.376;8.742;2024-03-29T08:36:13;4.00;;;2.93;;
14348;SDS011;7258;50.376;8.742;2024-03-29T08:38:16;4.47;;;2.87;;
14348;SDS011;7258;50.376;8.742;2024-03-29T08:40:18;4.00;;;2.50;;
14348;SDS011;7258;50.376;8.742;2024-03-29T08:42:20;4.20;;;3.00;;
14348;SDS011;7258;50.376;8.742;2024-03-29T08:44:24;3.93;;;2.90;;
14348;SDS011;7258;50.376;8.742;2024-03-29T08:46:28;4.13;;;2.70;;
14348;SDS011;7258;50.376;8.742;2024-03-29T08:48:30;3.67;;;3.10;;
14348;SDS011;7258;50.376;8.742;2024-03-29T08:50:36;4.40;;;2.93;;
14348;SDS011;7258;50.376;8.742;2024-03-29T08:52:39;9.50;;;3.67;;
14348;SDS011;7258;50.376;8.742;2024-03-29T08:54:42;4.50;;;3.50;;
14348;SDS011;7258;50.376;8.742;2024-03-29T08:56:45;5.77;;;3.40;;
14348;SDS011;7258;50.376;8.742;2024-03-29T08:58:58;5.50;;;3.50;;
14348;SDS011;7258;50.376;8.742;2024-03-29T09:01:13;4.23;;;3.50;;
14348;SDS011;7258;50.376;8.742;2024-03-29T09:03:21;4.93;;;3.30;;
14348;SDS011;7258;50.376;8.742;2024-03-29T09:05:29;5.10;;;3.10;;
14348;SDS011;7258;50.376;8.742;2024-03-29T09:07:31;5.00;;;2.93;;
14348;SDS011;7258;50.376;8.742;2024-03-29T09:09:34;5.73;;;2.97;;
14348;SDS011;7258;50.376;8.742;2024-03-29T09:11:38;4.30;;;2.60;;
14348;SDS011;7258;50.376;8.742;2024-03-29T09:13:52;3.67;;;2.53;;
14348;SDS011;7258;50.376;8.742;2024-03-29T09:16:02;4.83;;;2.67;;
14348;SDS011;7258;50.376;8.742;2024-03-29T09:18:05;4.90;;;3.10;;
14348;SDS011;7258;50.376;8.742;2024-03-29T09:20:19;4.67;;;2.90;;
14348;SDS011;7258;50.376;8.742;2024-03-29T09:22:21;3.80;;;3.07;;
14348;SDS011;7258;50.376;8.742;2024-03-29T09:24:28;4.80;;;3.03;;
14348;SDS011;7258;50.376;8.742;2024-03-29T09:26:36;2.90;;;2.60;;
14348;SDS011;7258;50.376;8.742;2024-03-29T09:28:41;7.20;;;3.00;;
14348;SDS011;7258;50.376;8.742;2024-03-29T09:30:42;4.23;;;2.67;;
14348;SDS011;7258;50.376;8.742;2024-03-29T09:32:46;3.53;;;3.13;;
14348;SDS011;7258;50.376;8.742;2024-03-29T09:34:51;5.93;;;2.87;;
14348;SDS011;7258;50.376;8.742;2024-03-29T09:36:55;6.03;;;2.83;;
14348;SDS011;7258;50.376;8.742;2024-03-29T09:39:00;5.23;;;2.87;;
14348;SDS011;7258;50.376;8.742;2024-03-29T09:41:07;5.43;;;3.00;;
14348;SDS011;7258;50.376;8.742;2024-03-29T09:43:16;3.07;;;2.70;;
14348;SDS011;7258;50.376;8.742;2024-03-29T09:45:18;4.40;;;2.90;;
14348;SDS011;7258;50.376;8.742;2024-03-29T09:47:25;4.50;;;2.87;;
14348;SDS011;7258;50.376;8.742;2024-03-29T09:49:31;2.80;;;2.50;;
14348;SDS011;7258;50.376;8.742;2024-03-29T09:51:34;6.47;;;2.57;;
14348;SDS011;7258;50.376;8.742;2024-03-29T09:53:40;2.90;;;2.53;;
14348;SDS011;7258;50.376;8.742;2024-03-29T09:55:44;4.43;;;2.53;;
14348;SDS011;7258;50.376;8.742;2024-03-29T09:57:48;2.83;;;2.50;;
14348;SDS011;7258;50.376;8.742;2024-03-29T09:59:54;3.40;;;2.90;;
14348;SDS011;7258;50.376;8.742;2024-03-29T10:01:56;2.93;;;2.60;;
14348;SDS011;7258;50.376;8.742;2024-03-29T10:04:01;2.50;;;2.30;;
14348;SDS011;7258;50.376;8.742;2024-03-29T10:06:05;4.30;;;2.83;;
14348;SDS011;7258;50.376;8.742;2024-03-29T10:08:09;2.87;;;2.43;;
14348;SDS011;7258;50.376;8.742;2024-03-29T10:10:13;2.90;;;2.53;;
14348;SDS011;7258;50.376;8.742;2024-03-29T10:12:15;4.37;;;2.37;;
14348;SDS011;7258;50.376;8.742;2024-03-29T10:14:18;2.27;;;2.03;;
14348;SDS011;7258;50.376;8.742;2024-03-29T10:16:25;2.70;;;2.50;;
14348;SDS011;7258;50.376;8.742;2024-03-29T10:18:32;3.10;;;2.37;;
14348;SDS011;7258;50.376;8.742;2024-03-29T10:20:34;5.07;;;2.37;;
14348;SDS011;7258;50.376;8.742;2024-03-29T10:22:40;3.85;;;2.42;;
14348;SDS011;7258;50.376;8.742;2024-03-29T10:24:43;4.43;;;2.77;;
14348;SDS011;7258;50.376;8.742;2024-03-29T10:26:48;3.17;;;2.42;;
14348;SDS011;7258;50.376;8.742;2024-03-29T10:28:51;2.67;;;2.03;;
14348;SDS011;7258;50.376;8.742;2024-03-29T10:30:56;2.97;;;2.55;;
14348;SDS011;7258;50.376;8.742;2024-03-29T10:32:58;3.10;;;2.30;;
14348;SDS011;7258;50.376;8.742;2024-03-29T10:35:02;3.10;;;2.10;;
14348;SDS011;7258;50.376;8.742;2024-03-29T10:37:05;2.78;;;2.33;;
14348;SDS011;7258;50.376;8.742;2024-03-29T10:39:09;2.53;;;2.23;;
14348;SDS011;7258;50.376;8.742;2024-03-29T10:41:13;2.67;;;2.47;;
14348;SDS011;7258;50.376;8.742;2024-03-29T10:43:17;3.30;;;2.60;;
14348;SDS011;7258;50.376;8.742;2024-03-29T10:45:20;3.67;;;2.57;;
14348;SDS011;7258;50.376;8.742;2024-03-29T10:47:29;2.77;;;2.47;;
14348;SDS011;7258;50.376;8.742;2024-03-29T10:49:33;2.80;;;2.60;;
14348;SDS011;7258;50.376;8.742;2024-03-29T10:51:38;3.43;;;2.90;;
14348;SDS011;7258;50.376;8.742;2024-03-29T10:53:43;4.47;;;2.60;;
14348;SDS011;7258;50.376;8.742;2024-03-29T10:55:47;3.30;;;2.73;;
14348;SDS011;7258;50.376;8.742;2024-03-29T10:57:54;3.17;;;2.77;;
14348;SDS011;7258;50.376;8.742;2024-03-29T11:00:02;3.93;;;2.50;;
14348;SDS011;7258;50.376;8.742;2024-03-29T11:02:12;2.40;;;2.20;;
14348;SDS011;7258;50.376;8.742;2024-03-29T11:04:22;4.73;;;2.90;;
14348;SDS011;7258;50.376;8.742;2024-03-29T11:06:27;4.68;;;2.50;;
14348;SDS011;7258;50.376;8.742;2024-03-29T11:08:33;4.10;;;2.40;;
14348;SDS011;7258;50.376;8.742;2024-03-29T11:10:39;3.23;;;2.77;;
14348;SDS011;7258;50.376;8.742;2024-03-29T11:12:49;3.65;;;2.65;;
14348;SDS011;7258;50.376;8.742;2024-03-29T11:15:06;2.65;;;2.45;;
14348;SDS011;7258;50.376;8.742;2024-03-29T11:17:14;2.90;;;2.60;;
14348;SDS011;7258;50.376;8.742;2024-03-29T11:19:17;3.95;;;2.60;;
14348;SDS011;7258;50.376;8.742;2024-03-29T11:21:20;3.57;;;2.87;;
14348;SDS011;7258;50.376;8.742;2024-03-29T11:23:26;4.38;;;2.83;;
14348;SDS011;7258;50.376;8.742;2024-03-29T11:25:36;2.80;;;2.58;;
14348;SDS011;7258;50.376;8.742;2024-03-29T11:27:40;3.85;;;2.78;;
14348;SDS011;7258;50.376;8.742;2024-03-29T11:29:42;3.25;;;2.88;;
14348;SDS011;7258;50.376;8.742;2024-03-29T11:31:55;3.03;;;2.38;;
14348;SDS011;7258;50.376;8.742;2024-03-29T11:33:58;2.67;;;2.47;;
14348;SDS011;7258;50.376;8.742;2024-03-29T11:36:03;3.40;;;2.55;;
14348;SDS011;7258;50.376;8.742;2024-03-29T11:38:16;5.43;;;2.80;;
14348;SDS011;7258;50.376;8.742;2024-03-29T11:40:18;3.08;;;2.55;;
14348;SDS011;7258;50.376;8.742;2024-03-29T11:42:34;3.15;;;2.60;;
14348;SDS011;7258;50.376;8.742;2024-03-29T11:44:40;4.18;;;2.83;;
14348;SDS011;7258;50.376;8.742;2024-03-29T11:46:43;2.95;;;2.75;;
14348;SDS011;7258;50.376;8.742;2024-03-29T11:48:47;3.95;;;2.85;;
14348;SDS011;7258;50.376;8.742;2024-03-29T11:50:50;3.58;;;2.80;;
14348;SDS011;7258;50.376;8.742;2024-03-29T11:52:51;5.43;;;3.42;;
14348;SDS011;7258;50.376;8.742;2024-03-29T11:54:53;4.07;;;2.90;;
14348;SDS011;7258;50.376;8.742;2024-03-29T11:56:56;3.33;;;2.93;;
14348;SDS011;7258;50.376;8.742;2024-03-29T12:01:29;6.47;;;3.10;;
14348;SDS011;7258;50.376;8.742;2024-03-29T12:03:38;3.97;;;3.40;;
14348;SDS011;7258;50.376;8.742;2024-03-29T12:05:42;3.60;;;3.22;;
14348;SDS011;7258;50.376;8.742;2024-03-29T12:07:45;5.67;;;3.90;;
14348;SDS011;7258;50.376;8.742;2024-03-29T12:09:50;5.90;;;3.57;;
14348;SDS011;7258;50.376;8.742;2024-03-29T12:11:53;5.97;;;4.50;;
14348;SDS011;7258;50.376;8.742;2024-03-29T12:13:58;4.90;;;4.40;;
14348;SDS011;7258;50.376;8.742;2024-03-29T12:16:01;7.20;;;5.60;;
14348;SDS011;7258;50.376;8.742;2024-03-29T12:18:04;8.00;;;5.47;;
14348;SDS011;7258;50.376;8.742;2024-03-29T12:20:07;6.03;;;5.47;;
14348;SDS011;7258;50.376;8.742;2024-03-29T12:22:13;7.87;;;5.53;;
14348;SDS011;7258;50.376;8.742;2024-03-29T12:24:16;6.23;;;5.07;;
14348;SDS011;7258;50.376;8.742;2024-03-29T12:26:18;6.10;;;4.70;;
14348;SDS011;7258;50.376;8.742;2024-03-29T12:28:23;0.45;;;0.45;;
14348;SDS011;7258;50.376;8.742;2024-03-29T12:30:28;0.20;;;0.20;;
14348;SDS011;7258;50.376;8.742;2024-03-29T12:32:30;0.30;;;0.30;;
14348;SDS011;7258;50.376;8.742;2024-03-29T12:34:35;0.20;;;0.20;;
14348;SDS011;7258;50.376;8.742;2024-03-29T12:36:37;0.97;;;0.97;;
14348;SDS011;7258;50.376;8.742;2024-03-29T12:38:41;0.20;;;0.20;;
14348;SDS011;7258;50.376;8.742;2024-03-29T12:40:45;1.07;;;1.07;;